createdAt,value
2022-08-03T03:35:11.461Z,97559.95
2022-08-03T03:40:13.570Z,97559.95
2022-08-03T03:45:15.299Z,97572.32
2022-08-03T03:50:17.843Z,97572.32
2022-08-03T03:55:19.743Z,97578.91
2022-08-03T04:00:22.035Z,97578.91
2022-08-03T04:05:23.895Z,97586.65
2022-08-03T04:10:28.229Z,97586.65
2022-08-03T04:15:31.211Z,97587.76
2022-08-03T04:20:35.035Z,97587.76
2022-08-03T04:25:37.047Z,97588.02
2022-08-03T04:30:39.889Z,97588.02
2022-08-03T04:40:49.260Z,97612.81
2022-08-03T04:45:51.603Z,97612.81
2022-08-03T04:50:53.609Z,97614.22
2022-08-03T04:55:55.473Z,97614.22
2022-08-03T05:00:57.173Z,97626.8
2022-08-03T05:11:04.714Z,97632.15
2022-08-03T05:16:06.518Z,97632.15
2022-08-03T05:21:08.932Z,97642.42
2022-08-03T05:26:10.663Z,97642.42
2022-08-03T05:31:12.332Z,97643.84
2022-08-03T05:36:14.199Z,97643.84
2022-08-03T05:46:22.030Z,97640.25
2022-08-03T05:51:23.704Z,97642.8
2022-08-03T05:56:25.390Z,97646.98
2022-08-03T06:01:27.508Z,97646.98
2022-08-03T06:06:32.933Z,97655.66
2022-08-03T06:11:34.677Z,97655.66
2022-08-03T06:16:36.506Z,97652.52
2022-08-03T06:21:41.130Z,97652.52
2022-08-03T06:26:44.288Z,97652.19
2022-08-03T06:31:45.996Z,97652.19
2022-08-03T06:36:47.680Z,97656.05
2022-08-03T06:41:49.455Z,97656.05
2022-08-03T06:46:51.305Z,97654.23
2022-08-03T06:56:58.721Z,97660.91
2022-08-03T07:02:01.520Z,97660.91
2022-08-03T07:07:03.762Z,97667.69
2022-08-03T07:12:05.742Z,97667.69
2022-08-03T07:22:13.444Z,97675.95
2022-08-03T07:27:15.565Z,97675.95
2022-08-03T07:32:18.886Z,97670.69
2022-08-03T07:37:21.229Z,97670.69
2022-08-03T07:42:23.014Z,97669
2022-08-03T07:52:32.122Z,97664.42
2022-08-03T07:57:34.469Z,97664.42
2022-08-03T08:02:36.119Z,97661.05
2022-08-03T08:07:38.046Z,97661.05
2022-08-03T08:12:40.035Z,97657.13
2022-08-03T08:17:42.434Z,97657.13
2022-08-03T08:22:45.107Z,97651.42
2022-08-03T08:32:55.447Z,97656.39
2022-08-03T08:43:05.146Z,97654.88
2022-08-03T08:48:10.330Z,97660.52
2022-08-03T08:58:21.552Z,97662.61
2022-08-03T09:08:30.007Z,97648.63
2022-08-03T09:13:32.961Z,97648.63
2022-08-03T09:18:34.815Z,97651.8
2022-08-03T09:33:49.345Z,97650.97
2022-08-03T09:43:56.456Z,97645.7
2022-08-03T10:04:19.753Z,97629.89
2022-08-03T10:09:21.658Z,97629.89
2022-08-03T10:14:23.734Z,97629.2
2022-08-03T10:19:25.405Z,97629.2
2022-08-03T10:24:29.210Z,97619.26
2022-08-03T10:29:33.344Z,97619.26
2022-08-03T10:34:44.907Z,97613.15
2022-08-03T10:39:46.781Z,97613.15
2022-08-03T10:44:49.347Z,97607.25
2022-08-03T10:49:51.831Z,97602.64
2022-08-03T10:54:54.065Z,97602.64
2022-08-03T10:59:57.550Z,97586.77
2022-08-03T11:15:12.185Z,97580.06
2022-08-03T11:20:13.957Z,97571.63
2022-08-03T11:30:28.343Z,97567.17
2022-08-03T11:35:30.947Z,97567.17
2022-08-03T11:40:33.237Z,97553.67
2022-08-03T11:45:35.466Z,97553.67
2022-08-03T11:50:37.273Z,97542.47
2022-08-03T11:55:39.374Z,97542.47
2022-08-03T12:00:41.597Z,97543.69
2022-08-03T12:10:51.212Z,97531.57
2022-08-03T12:15:55.620Z,97526.88
2022-08-03T12:26:03.325Z,97524.2
2022-08-03T12:31:05.912Z,97524.2
2022-08-03T12:36:08.707Z,97514.63
2022-08-03T12:41:11.029Z,97514.63
2022-08-03T12:46:13.854Z,97514.06
2022-08-03T12:51:15.658Z,97514.06
2022-08-03T12:56:17.438Z,97518.8
2022-08-03T13:01:23.258Z,97518.8
2022-08-03T13:06:25.290Z,97509.7
2022-08-03T13:16:33.819Z,97504.05
2022-08-03T13:26:41.644Z,97488.53
2022-08-03T13:41:54.758Z,97473.73
2022-08-03T13:46:56.458Z,97473.73
2022-08-03T13:51:58.565Z,97471.31
2022-08-03T14:02:06.439Z,97465.59
2022-08-03T14:07:08.176Z,97465.59
2022-08-03T14:12:10.173Z,97463.04
2022-08-03T14:17:12.627Z,97463.04
2022-08-03T14:22:18.340Z,97457.66
2022-08-03T14:27:20.571Z,97433.67
2022-08-03T14:32:22.586Z,97433.67
2022-08-03T14:37:24.308Z,97426.11
2022-08-03T14:42:26.258Z,97426.11
2022-08-03T14:47:28.042Z,97427.17
2022-08-03T14:52:29.875Z,97427.17
2022-08-03T14:57:31.695Z,97414.7
2022-08-03T15:02:33.641Z,97414.7
2022-08-03T15:07:35.557Z,97412.14
2022-08-03T15:12:37.351Z,97412.14
2022-08-03T15:22:49.598Z,97421.84
2022-08-03T15:32:57.534Z,97418.03
2022-08-03T15:37:59.545Z,97413.43
2022-08-03T15:43:01.350Z,97417.9
2022-08-03T15:48:03.486Z,97417.9
2022-08-03T15:53:05.236Z,97406.8
2022-08-03T16:03:12.677Z,97410.51
2022-08-03T16:08:14.811Z,97410.51
2022-08-03T16:13:16.625Z,97411.91
2022-08-03T16:18:18.455Z,97411.91
2022-08-03T16:23:20.709Z,97410.44
2022-08-03T16:28:23.118Z,97410.44
2022-08-03T16:33:24.925Z,97404.41
2022-08-03T16:38:26.614Z,97404.41
2022-08-03T16:43:28.396Z,97404.16
2022-08-03T16:48:30.320Z,97404.16
2022-08-03T17:13:56.615Z,97417.36
2022-08-03T17:19:05.332Z,97418.56
2022-08-03T17:24:13.276Z,97418.56
2022-08-03T17:29:17.380Z,97424.3
2022-08-03T17:34:20.527Z,97424.3
2022-08-03T17:49:41.238Z,97442.89
2022-08-03T17:59:55.241Z,97437.67
2022-08-03T18:05:01.892Z,97443.52
2022-08-03T18:10:15.954Z,97443.52
2022-08-03T18:15:23.019Z,97451.97
2022-08-03T18:40:54.605Z,97469.8
2022-08-03T18:46:02.287Z,97480.16
2022-08-03T18:56:23.210Z,97485.78
2022-08-03T19:06:38.660Z,97497.91
2022-08-03T19:16:53.537Z,97506.95
2022-08-03T19:21:56.415Z,97510.95
2022-08-03T19:27:02.622Z,97510.95
2022-08-03T19:32:07.007Z,97517.92
2022-08-03T19:37:15.975Z,97517.92
2022-08-03T19:47:34.387Z,97520.59
2022-08-03T19:52:41.030Z,97522.75
2022-08-03T19:57:46.122Z,97528.59
2022-08-03T20:02:51.943Z,97528.59
2022-08-03T20:07:58.866Z,97528.58
2022-08-03T20:13:03.849Z,97528.58
2022-08-03T20:23:18.834Z,97530.97
2022-08-03T20:28:27.505Z,97523.67
2022-08-03T20:43:42.862Z,97524.99
2022-08-03T20:59:01.366Z,97532.06
2022-08-03T21:04:09.878Z,97532.06
2022-08-03T21:09:17.922Z,97532.06
2022-08-03T21:14:22.981Z,97532.06
2022-08-03T21:19:25.646Z,97532.06
2022-08-03T21:24:28.259Z,97532.06
2022-08-03T21:29:30.424Z,97532.06
2022-08-03T21:34:34.066Z,97532.06
